sensor_id;sensor_type;location;lat;lon;timestamp;temperature;humidity
4376;DHT22;2202;50.866;12.750;2023-07-29T00:01:08;18.50;93.30
4376;DHT22;2202;50.866;12.750;2023-07-29T00:03:35;18.40;93.70
4376;DHT22;2202;50.866;12.750;2023-07-29T00:06:02;18.30;94.00
4376;DHT22;2202;50.866;12.750;2023-07-29T00:08:29;18.20;94.20
4376;DHT22;2202;50.866;12.750;2023-07-29T00:10:57;18.20;94.20
4376;DHT22;2202;50.866;12.750;2023-07-29T00:13:24;18.10;94.50
4376;DHT22;2202;50.866;12.750;2023-07-29T00:15:54;18.10;94.50
4376;DHT22;2202;50.866;12.750;2023-07-29T00:18:21;18.10;94.80
4376;DHT22;2202;50.866;12.750;2023-07-29T00:20:49;18.00;94.90
4376;DHT22;2202;50.866;12.750;2023-07-29T00:23:17;18.00;95.00
4376;DHT22;2202;50.866;12.750;2023-07-29T00:25:45;18.00;95.10
4376;DHT22;2202;50.866;12.750;2023-07-29T00:28:13;18.00;95.00
4376;DHT22;2202;50.866;12.750;2023-07-29T00:30:40;18.00;95.20
4376;DHT22;2202;50.866;12.750;2023-07-29T00:33:07;18.00;95.20
4376;DHT22;2202;50.866;12.750;2023-07-29T00:35:34;18.00;95.20
4376;DHT22;2202;50.866;12.750;2023-07-29T00:38:01;18.00;95.10
4376;DHT22;2202;50.866;12.750;2023-07-29T00:40:29;18.00;95.10
4376;DHT22;2202;50.866;12.750;2023-07-29T00:42:56;18.00;95.10
4376;DHT22;2202;50.866;12.750;2023-07-29T00:45:25;18.00;95.10
4376;DHT22;2202;50.866;12.750;2023-07-29T00:47:53;18.00;95.10
4376;DHT22;2202;50.866;12.750;2023-07-29T00:50:20;18.00;95.10
4376;DHT22;2202;50.866;12.750;2023-07-29T00:52:48;18.00;95.10
4376;DHT22;2202;50.866;12.750;2023-07-29T00:55:15;18.00;94.90
4376;DHT22;2202;50.866;12.750;2023-07-29T00:57:42;17.90;95.00
4376;DHT22;2202;50.866;12.750;2023-07-29T01:00:14;17.90;95.10
4376;DHT22;2202;50.866;12.750;2023-07-29T01:02:43;17.90;95.20
4376;DHT22;2202;50.866;12.750;2023-07-29T01:05:12;17.90;95.20
4376;DHT22;2202;50.866;12.750;2023-07-29T01:07:47;17.90;95.20
4376;DHT22;2202;50.866;12.750;2023-07-29T01:10:19;17.80;95.30
4376;DHT22;2202;50.866;12.750;2023-07-29T01:12:52;17.90;95.30
4376;DHT22;2202;50.866;12.750;2023-07-29T01:15:24;17.80;95.30
4376;DHT22;2202;50.866;12.750;2023-07-29T01:17:55;17.90;95.20
4376;DHT22;2202;50.866;12.750;2023-07-29T01:20:24;17.90;95.20
4376;DHT22;2202;50.866;12.750;2023-07-29T01:22:51;17.80;95.20
4376;DHT22;2202;50.866;12.750;2023-07-29T01:25:20;17.80;95.30
4376;DHT22;2202;50.866;12.750;2023-07-29T01:27:49;17.70;95.50
4376;DHT22;2202;50.866;12.750;2023-07-29T01:30:17;17.70;95.60
4376;DHT22;2202;50.866;12.750;2023-07-29T01:32:54;17.60;95.80
4376;DHT22;2202;50.866;12.750;2023-07-29T01:35:24;17.40;96.10
4376;DHT22;2202;50.866;12.750;2023-07-29T01:37:56;17.40;96.30
4376;DHT22;2202;50.866;12.750;2023-07-29T01:40:27;17.40;96.50
4376;DHT22;2202;50.866;12.750;2023-07-29T01:42:54;17.30;96.60
4376;DHT22;2202;50.866;12.750;2023-07-29T01:45:23;17.30;96.80
4376;DHT22;2202;50.866;12.750;2023-07-29T01:47:51;17.20;97.00
4376;DHT22;2202;50.866;12.750;2023-07-29T01:50:18;17.20;97.20
4376;DHT22;2202;50.866;12.750;2023-07-29T01:52:44;17.30;97.10
4376;DHT22;2202;50.866;12.750;2023-07-29T01:55:11;17.30;97.20
4376;DHT22;2202;50.866;12.750;2023-07-29T01:57:39;17.30;97.30
4376;DHT22;2202;50.866;12.750;2023-07-29T02:00:07;17.40;97.10
4376;DHT22;2202;50.866;12.750;2023-07-29T02:02:34;17.50;97.00
4376;DHT22;2202;50.866;12.750;2023-07-29T02:05:01;17.50;96.90
4376;DHT22;2202;50.866;12.750;2023-07-29T02:07:28;17.60;96.70
4376;DHT22;2202;50.866;12.750;2023-07-29T02:09:55;17.60;96.60
4376;DHT22;2202;50.866;12.750;2023-07-29T02:12:22;17.60;96.40
4376;DHT22;2202;50.866;12.750;2023-07-29T02:14:50;17.60;96.30
4376;DHT22;2202;50.866;12.750;2023-07-29T02:17:17;17.60;96.30
4376;DHT22;2202;50.866;12.750;2023-07-29T02:19:44;17.60;96.40
4376;DHT22;2202;50.866;12.750;2023-07-29T02:22:13;17.60;96.40
4376;DHT22;2202;50.866;12.750;2023-07-29T02:24:40;17.60;96.30
4376;DHT22;2202;50.866;12.750;2023-07-29T02:27:07;17.60;96.40
4376;DHT22;2202;50.866;12.750;2023-07-29T02:29:34;17.60;96.40
4376;DHT22;2202;50.866;12.750;2023-07-29T02:32:03;17.60;96.30
4376;DHT22;2202;50.866;12.750;2023-07-29T02:34:30;17.70;96.20
4376;DHT22;2202;50.866;12.750;2023-07-29T02:36:58;17.70;96.30
4376;DHT22;2202;50.866;12.750;2023-07-29T02:39:24;17.70;96.20
4376;DHT22;2202;50.866;12.750;2023-07-29T02:41:51;17.80;95.90
4376;DHT22;2202;50.866;12.750;2023-07-29T02:44:18;17.80;95.90
4376;DHT22;2202;50.866;12.750;2023-07-29T02:46:45;17.80;95.90
4376;DHT22;2202;50.866;12.750;2023-07-29T02:49:14;17.80;96.00
4376;DHT22;2202;50.866;12.750;2023-07-29T02:51:40;17.80;95.90
4376;DHT22;2202;50.866;12.750;2023-07-29T02:54:07;17.80;95.90
4376;DHT22;2202;50.866;12.750;2023-07-29T02:56:34;17.80;95.80
4376;DHT22;2202;50.866;12.750;2023-07-29T02:59:01;17.80;95.80
4376;DHT22;2202;50.866;12.750;2023-07-29T03:01:28;17.80;95.80
4376;DHT22;2202;50.866;12.750;2023-07-29T03:03:54;17.80;95.80
4376;DHT22;2202;50.866;12.750;2023-07-29T03:06:23;17.80;95.80
4376;DHT22;2202;50.866;12.750;2023-07-29T03:08:50;17.80;95.70
4376;DHT22;2202;50.866;12.750;2023-07-29T03:11:17;17.80;95.70
4376;DHT22;2202;50.866;12.750;2023-07-29T03:13:44;17.80;95.70
4376;DHT22;2202;50.866;12.750;2023-07-29T03:16:11;17.80;95.70
4376;DHT22;2202;50.866;12.750;2023-07-29T03:18:38;17.80;95.60
4376;DHT22;2202;50.866;12.750;2023-07-29T03:21:06;17.80;95.60
4376;DHT22;2202;50.866;12.750;2023-07-29T03:23:34;17.80;95.60
4376;DHT22;2202;50.866;12.750;2023-07-29T03:26:02;17.80;95.50
4376;DHT22;2202;50.866;12.750;2023-07-29T03:28:36;17.80;95.60
4376;DHT22;2202;50.866;12.750;2023-07-29T03:31:04;17.80;95.60
4376;DHT22;2202;50.866;12.750;2023-07-29T03:33:30;17.80;95.70
4376;DHT22;2202;50.866;12.750;2023-07-29T03:35:57;17.80;95.70
4376;DHT22;2202;50.866;12.750;2023-07-29T03:38:24;17.90;95.50
4376;DHT22;2202;50.866;12.750;2023-07-29T03:40:52;17.90;95.30
4376;DHT22;2202;50.866;12.750;2023-07-29T03:43:20;17.90;95.30
4376;DHT22;2202;50.866;12.750;2023-07-29T03:45:46;17.90;95.40
4376;DHT22;2202;50.866;12.750;2023-07-29T03:48:13;17.90;95.40
4376;DHT22;2202;50.866;12.750;2023-07-29T03:50:40;17.90;95.40
4376;DHT22;2202;50.866;12.750;2023-07-29T03:53:07;17.90;95.50
4376;DHT22;2202;50.866;12.750;2023-07-29T03:55:35;18.00;95.40
4376;DHT22;2202;50.866;12.750;2023-07-29T03:58:03;18.00;95.30
4376;DHT22;2202;50.866;12.750;2023-07-29T04:00:30;18.00;95.40
4376;DHT22;2202;50.866;12.750;2023-07-29T04:02:57;18.00;95.30
4376;DHT22;2202;50.866;12.750;2023-07-29T04:05:24;18.00;95.20
4376;DHT22;2202;50.866;12.750;2023-07-29T04:07:51;18.00;95.20
4376;DHT22;2202;50.866;12.750;2023-07-29T04:10:19;18.00;95.30
4376;DHT22;2202;50.866;12.750;2023-07-29T04:12:46;18.10;95.20
4376;DHT22;2202;50.866;12.750;2023-07-29T04:15:14;18.10;94.90
4376;DHT22;2202;50.866;12.750;2023-07-29T04:17:41;18.10;95.00
4376;DHT22;2202;50.866;12.750;2023-07-29T04:20:09;18.20;94.70
4376;DHT22;2202;50.866;12.750;2023-07-29T04:22:36;18.20;94.60
4376;DHT22;2202;50.866;12.750;2023-07-29T04:25:04;18.20;94.70
4376;DHT22;2202;50.866;12.750;2023-07-29T04:27:31;18.20;94.80
4376;DHT22;2202;50.866;12.750;2023-07-29T04:29:58;18.20;95.00
4376;DHT22;2202;50.866;12.750;2023-07-29T04:32:26;18.20;94.90
4376;DHT22;2202;50.866;12.750;2023-07-29T04:34:53;18.20;94.80
4376;DHT22;2202;50.866;12.750;2023-07-29T04:37:19;18.20;94.60
4376;DHT22;2202;50.866;12.750;2023-07-29T04:39:46;18.20;94.60
4376;DHT22;2202;50.866;12.750;2023-07-29T04:42:13;18.20;94.40
4376;DHT22;2202;50.866;12.750;2023-07-29T04:44:40;18.30;94.40
4376;DHT22;2202;50.866;12.750;2023-07-29T04:47:07;18.30;94.20
4376;DHT22;2202;50.866;12.750;2023-07-29T04:49:36;18.30;94.00
4376;DHT22;2202;50.866;12.750;2023-07-29T04:52:03;18.40;93.90
4376;DHT22;2202;50.866;12.750;2023-07-29T04:54:30;18.50;93.60
4376;DHT22;2202;50.866;12.750;2023-07-29T04:56:56;18.50;93.30
4376;DHT22;2202;50.866;12.750;2023-07-29T04:59:23;18.50;93.30
4376;DHT22;2202;50.866;12.750;2023-07-29T05:01:50;18.60;93.10
4376;DHT22;2202;50.866;12.750;2023-07-29T05:04:17;18.60;92.80
4376;DHT22;2202;50.866;12.750;2023-07-29T05:06:45;18.70;93.00
4376;DHT22;2202;50.866;12.750;2023-07-29T05:09:13;18.70;92.50
4376;DHT22;2202;50.866;12.750;2023-07-29T05:11:40;18.70;92.60
4376;DHT22;2202;50.866;12.750;2023-07-29T05:14:07;18.80;92.30
4376;DHT22;2202;50.866;12.750;2023-07-29T05:16:35;18.80;92.30
4376;DHT22;2202;50.866;12.750;2023-07-29T05:19:02;18.80;92.10
4376;DHT22;2202;50.866;12.750;2023-07-29T05:21:30;18.80;91.90
4376;DHT22;2202;50.866;12.750;2023-07-29T05:23:58;18.90;91.90
4376;DHT22;2202;50.866;12.750;2023-07-29T05:26:25;19.00;91.90
4376;DHT22;2202;50.866;12.750;2023-07-29T05:28:52;19.00;91.60
4376;DHT22;2202;50.866;12.750;2023-07-29T05:31:19;19.00;91.50
4376;DHT22;2202;50.866;12.750;2023-07-29T05:33:46;19.00;91.70
4376;DHT22;2202;50.866;12.750;2023-07-29T05:36:12;19.10;91.40
4376;DHT22;2202;50.866;12.750;2023-07-29T05:38:39;19.10;91.10
4376;DHT22;2202;50.866;12.750;2023-07-29T05:41:07;19.20;90.90
4376;DHT22;2202;50.866;12.750;2023-07-29T05:43:34;19.20;90.50
4376;DHT22;2202;50.866;12.750;2023-07-29T05:46:01;19.20;90.60
4376;DHT22;2202;50.866;12.750;2023-07-29T05:48:28;19.20;90.50
4376;DHT22;2202;50.866;12.750;2023-07-29T05:50:55;19.30;90.90
4376;DHT22;2202;50.866;12.750;2023-07-29T05:53:21;19.30;90.70
4376;DHT22;2202;50.866;12.750;2023-07-29T05:55:48;19.40;90.20
4376;DHT22;2202;50.866;12.750;2023-07-29T05:58:17;19.50;90.40
4376;DHT22;2202;50.866;12.750;2023-07-29T06:00:43;19.60;90.40
4376;DHT22;2202;50.866;12.750;2023-07-29T06:03:10;19.70;90.00
4376;DHT22;2202;50.866;12.750;2023-07-29T06:05:37;19.70;89.20
4376;DHT22;2202;50.866;12.750;2023-07-29T06:08:04;19.60;89.00
4376;DHT22;2202;50.866;12.750;2023-07-29T06:10:32;19.70;88.40
4376;DHT22;2202;50.866;12.750;2023-07-29T06:12:59;19.80;87.20
4376;DHT22;2202;50.866;12.750;2023-07-29T06:15:27;20.00;86.80
4376;DHT22;2202;50.866;12.750;2023-07-29T06:17:54;20.10;85.60
4376;DHT22;2202;50.866;12.750;2023-07-29T06:20:21;20.20;86.00
4376;DHT22;2202;50.866;12.750;2023-07-29T06:22:48;20.20;85.40
4376;DHT22;2202;50.866;12.750;2023-07-29T06:25:15;20.20;84.60
4376;DHT22;2202;50.866;12.750;2023-07-29T06:27:41;20.30;84.20
4376;DHT22;2202;50.866;12.750;2023-07-29T06:30:09;20.30;84.60
4376;DHT22;2202;50.866;12.750;2023-07-29T06:32:37;20.40;82.40
4376;DHT22;2202;50.866;12.750;2023-07-29T06:35:04;20.40;85.20
4376;DHT22;2202;50.866;12.750;2023-07-29T06:37:31;20.40;83.00
4376;DHT22;2202;50.866;12.750;2023-07-29T06:39:59;20.30;84.20
4376;DHT22;2202;50.866;12.750;2023-07-29T06:42:25;20.70;84.20
4376;DHT22;2202;50.866;12.750;2023-07-29T06:44:52;21.20;83.60
4376;DHT22;2202;50.866;12.750;2023-07-29T06:47:19;21.60;80.20
4376;DHT22;2202;50.866;12.750;2023-07-29T06:49:47;21.80;77.60
4376;DHT22;2202;50.866;12.750;2023-07-29T06:52:14;21.60;75.60
4376;DHT22;2202;50.866;12.750;2023-07-29T06:54:41;21.60;75.40
4376;DHT22;2202;50.866;12.750;2023-07-29T06:57:08;21.50;75.40
4376;DHT22;2202;50.866;12.750;2023-07-29T06:59:34;21.30;76.40
4376;DHT22;2202;50.866;12.750;2023-07-29T07:02:01;21.20;78.20
4376;DHT22;2202;50.866;12.750;2023-07-29T07:04:28;21.00;79.00
4376;DHT22;2202;50.866;12.750;2023-07-29T07:06:57;21.00;80.20
4376;DHT22;2202;50.866;12.750;2023-07-29T07:09:23;20.90;79.20
4376;DHT22;2202;50.866;12.750;2023-07-29T07:11:50;21.10;78.80
4376;DHT22;2202;50.866;12.750;2023-07-29T07:14:18;21.30;78.20
4376;DHT22;2202;50.866;12.750;2023-07-29T07:16:44;21.60;79.00
4376;DHT22;2202;50.866;12.750;2023-07-29T07:19:11;22.00;76.20
4376;DHT22;2202;50.866;12.750;2023-07-29T07:21:38;22.20;73.80
4376;DHT22;2202;50.866;12.750;2023-07-29T07:24:07;21.90;74.00
4376;DHT22;2202;50.866;12.750;2023-07-29T07:26:34;22.10;74.00
4376;DHT22;2202;50.866;12.750;2023-07-29T07:29:00;22.30;73.60
4376;DHT22;2202;50.866;12.750;2023-07-29T07:31:27;22.70;72.00
4376;DHT22;2202;50.866;12.750;2023-07-29T07:33:54;22.70;71.00
4376;DHT22;2202;50.866;12.750;2023-07-29T07:36:21;22.80;70.40
4376;DHT22;2202;50.866;12.750;2023-07-29T07:38:48;22.80;70.20
4376;DHT22;2202;50.866;12.750;2023-07-29T07:41:16;22.70;70.40
4376;DHT22;2202;50.866;12.750;2023-07-29T07:43:43;22.40;70.00
4376;DHT22;2202;50.866;12.750;2023-07-29T07:46:09;22.50;72.00
4376;DHT22;2202;50.866;12.750;2023-07-29T07:48:37;22.80;70.00
4376;DHT22;2202;50.866;12.750;2023-07-29T07:51:10;22.70;68.40
4376;DHT22;2202;50.866;12.750;2023-07-29T07:53:37;22.70;69.60
4376;DHT22;2202;50.866;12.750;2023-07-29T07:56:05;22.90;71.00
4376;DHT22;2202;50.866;12.750;2023-07-29T07:58:34;23.20;67.00
4376;DHT22;2202;50.866;12.750;2023-07-29T08:01:02;23.40;68.80
4376;DHT22;2202;50.866;12.750;2023-07-29T08:03:29;23.70;65.00
4376;DHT22;2202;50.866;12.750;2023-07-29T08:05:56;23.40;65.00
4376;DHT22;2202;50.866;12.750;2023-07-29T08:08:23;23.40;67.80
4376;DHT22;2202;50.866;12.750;2023-07-29T08:10:50;23.30;67.60
4376;DHT22;2202;50.866;12.750;2023-07-29T08:13:17;23.30;66.60
4376;DHT22;2202;50.866;12.750;2023-07-29T08:15:47;22.90;67.40
4376;DHT22;2202;50.866;12.750;2023-07-29T08:18:14;22.60;68.40
4376;DHT22;2202;50.866;12.750;2023-07-29T08:20:41;22.30;68.60
4376;DHT22;2202;50.866;12.750;2023-07-29T08:23:17;22.00;69.60
4376;DHT22;2202;50.866;12.750;2023-07-29T08:25:44;21.90;70.60
4376;DHT22;2202;50.866;12.750;2023-07-29T08:28:11;22.00;71.20
4376;DHT22;2202;50.866;12.750;2023-07-29T08:30:38;22.00;71.00
4376;DHT22;2202;50.866;12.750;2023-07-29T08:33:06;22.20;69.60
4376;DHT22;2202;50.866;12.750;2023-07-29T08:35:33;22.30;70.20
4376;DHT22;2202;50.866;12.750;2023-07-29T08:37:59;22.40;70.00
4376;DHT22;2202;50.866;12.750;2023-07-29T08:40:29;22.30;69.40
4376;DHT22;2202;50.866;12.750;2023-07-29T08:42:58;22.20;69.80
4376;DHT22;2202;50.866;12.750;2023-07-29T08:45:30;22.00;70.80
4376;DHT22;2202;50.866;12.750;2023-07-29T08:47:58;21.90;70.60
4376;DHT22;2202;50.866;12.750;2023-07-29T08:50:27;22.20;70.20
4376;DHT22;2202;50.866;12.750;2023-07-29T08:52:55;22.50;67.80
4376;DHT22;2202;50.866;12.750;2023-07-29T08:55:22;22.40;68.00
4376;DHT22;2202;50.866;12.750;2023-07-29T08:57:49;22.50;69.00
4376;DHT22;2202;50.866;12.750;2023-07-29T09:00:17;22.60;68.80
4376;DHT22;2202;50.866;12.750;2023-07-29T09:02:44;22.70;68.40
4376;DHT22;2202;50.866;12.750;2023-07-29T09:05:11;22.80;67.40
4376;DHT22;2202;50.866;12.750;2023-07-29T09:07:39;22.70;67.80
4376;DHT22;2202;50.866;12.750;2023-07-29T09:10:09;22.70;66.60
4376;DHT22;2202;50.866;12.750;2023-07-29T09:12:36;22.60;66.40
4376;DHT22;2202;50.866;12.750;2023-07-29T09:15:03;22.40;67.80
4376;DHT22;2202;50.866;12.750;2023-07-29T09:17:31;22.30;68.80
4376;DHT22;2202;50.866;12.750;2023-07-29T09:19:58;22.20;69.40
4376;DHT22;2202;50.866;12.750;2023-07-29T09:22:27;22.20;68.40
4376;DHT22;2202;50.866;12.750;2023-07-29T09:24:57;22.30;68.60
4376;DHT22;2202;50.866;12.750;2023-07-29T09:27:24;22.30;68.20
4376;DHT22;2202;50.866;12.750;2023-07-29T09:29:52;22.40;70.20
4376;DHT22;2202;50.866;12.750;2023-07-29T09:32:20;22.40;68.80
4376;DHT22;2202;50.866;12.750;2023-07-29T09:34:47;22.50;68.60
4376;DHT22;2202;50.866;12.750;2023-07-29T09:37:18;22.50;69.00
4376;DHT22;2202;50.866;12.750;2023-07-29T09:39:47;22.50;69.80
4376;DHT22;2202;50.866;12.750;2023-07-29T09:42:20;22.60;69.00
4376;DHT22;2202;50.866;12.750;2023-07-29T09:44:49;22.70;68.40
4376;DHT22;2202;50.866;12.750;2023-07-29T09:47:20;22.70;69.60
4376;DHT22;2202;50.866;12.750;2023-07-29T09:49:47;22.50;69.80
4376;DHT22;2202;50.866;12.750;2023-07-29T09:52:15;22.40;71.20
4376;DHT22;2202;50.866;12.750;2023-07-29T09:54:43;22.10;71.00
4376;DHT22;2202;50.866;12.750;2023-07-29T09:57:10;22.10;72.40
4376;DHT22;2202;50.866;12.750;2023-07-29T09:59:39;22.00;73.20
4376;DHT22;2202;50.866;12.750;2023-07-29T10:02:11;22.00;73.20
4376;DHT22;2202;50.866;12.750;2023-07-29T10:04:40;21.90;74.00
4376;DHT22;2202;50.866;12.750;2023-07-29T10:07:08;21.80;73.80
4376;DHT22;2202;50.866;12.750;2023-07-29T10:09:36;21.70;74.00
4376;DHT22;2202;50.866;12.750;2023-07-29T10:12:06;21.60;74.60
4376;DHT22;2202;50.866;12.750;2023-07-29T10:14:33;21.60;74.60
4376;DHT22;2202;50.866;12.750;2023-07-29T10:17:02;21.50;74.20
4376;DHT22;2202;50.866;12.750;2023-07-29T10:19:31;21.50;74.40
4376;DHT22;2202;50.866;12.750;2023-07-29T10:21:59;21.40;75.40
4376;DHT22;2202;50.866;12.750;2023-07-29T10:24:30;21.60;76.80
4376;DHT22;2202;50.866;12.750;2023-07-29T10:26:58;21.60;76.20
4376;DHT22;2202;50.866;12.750;2023-07-29T10:29:28;21.80;75.80
4376;DHT22;2202;50.866;12.750;2023-07-29T10:31:57;21.80;75.80
4376;DHT22;2202;50.866;12.750;2023-07-29T10:34:30;21.90;75.60
4376;DHT22;2202;50.866;12.750;2023-07-29T10:36:58;22.00;74.40
4376;DHT22;2202;50.866;12.750;2023-07-29T10:39:25;22.00;74.60
4376;DHT22;2202;50.866;12.750;2023-07-29T10:41:56;22.00;74.80
4376;DHT22;2202;50.866;12.750;2023-07-29T10:44:48;22.10;75.60
4376;DHT22;2202;50.866;12.750;2023-07-29T10:47:17;22.00;75.00
4376;DHT22;2202;50.866;12.750;2023-07-29T10:49:46;22.00;74.80
4376;DHT22;2202;50.866;12.750;2023-07-29T10:52:14;22.00;74.40
4376;DHT22;2202;50.866;12.750;2023-07-29T10:54:45;22.00;74.00
4376;DHT22;2202;50.866;12.750;2023-07-29T10:57:16;22.00;76.40
4376;DHT22;2202;50.866;12.750;2023-07-29T10:59:57;22.00;74.40
4376;DHT22;2202;50.866;12.750;2023-07-29T11:02:29;21.90;74.40
4376;DHT22;2202;50.866;12.750;2023-07-29T11:04:58;21.60;76.00
4376;DHT22;2202;50.866;12.750;2023-07-29T11:07:26;21.50;76.00
4376;DHT22;2202;50.866;12.750;2023-07-29T11:10:01;21.50;77.20
4376;DHT22;2202;50.866;12.750;2023-07-29T11:12:43;21.40;77.40
4376;DHT22;2202;50.866;12.750;2023-07-29T11:15:19;21.30;77.20
4376;DHT22;2202;50.866;12.750;2023-07-29T11:17:47;21.20;78.20
4376;DHT22;2202;50.866;12.750;2023-07-29T11:20:16;21.20;78.40
4376;DHT22;2202;50.866;12.750;2023-07-29T11:22:44;21.30;79.00
4376;DHT22;2202;50.866;12.750;2023-07-29T11:25:12;21.30;78.60
4376;DHT22;2202;50.866;12.750;2023-07-29T11:27:39;21.30;80.20
4376;DHT22;2202;50.866;12.750;2023-07-29T11:30:08;21.30;80.40
4376;DHT22;2202;50.866;12.750;2023-07-29T11:32:36;21.30;80.20
4376;DHT22;2202;50.866;12.750;2023-07-29T11:35:04;21.40;79.00
4376;DHT22;2202;50.866;12.750;2023-07-29T11:37:32;21.40;79.40
4376;DHT22;2202;50.866;12.750;2023-07-29T11:39:59;21.30;78.80
4376;DHT22;2202;50.866;12.750;2023-07-29T11:42:27;21.30;80.40
4376;DHT22;2202;50.866;12.750;2023-07-29T11:44:56;21.30;80.00
4376;DHT22;2202;50.866;12.750;2023-07-29T11:47:23;21.40;80.00
4376;DHT22;2202;50.866;12.750;2023-07-29T11:49:50;21.40;79.20
4376;DHT22;2202;50.866;12.750;2023-07-29T11:52:17;21.20;79.40
4376;DHT22;2202;50.866;12.750;2023-07-29T11:54:48;21.20;79.80
4376;DHT22;2202;50.866;12.750;2023-07-29T11:57:15;21.10;80.60
4376;DHT22;2202;50.866;12.750;2023-07-29T11:59:44;21.10;81.40
4376;DHT22;2202;50.866;12.750;2023-07-29T12:02:12;21.10;81.80
4376;DHT22;2202;50.866;12.750;2023-07-29T12:04:41;21.10;81.20
4376;DHT22;2202;50.866;12.750;2023-07-29T12:07:08;21.00;81.40
4376;DHT22;2202;50.866;12.750;2023-07-29T12:09:35;20.80;81.20
4376;DHT22;2202;50.866;12.750;2023-07-29T12:12:06;20.50;83.20
4376;DHT22;2202;50.866;12.750;2023-07-29T12:14:33;20.30;84.60
4376;DHT22;2202;50.866;12.750;2023-07-29T12:17:01;20.40;86.40
4376;DHT22;2202;50.866;12.750;2023-07-29T12:19:32;20.30;87.00
4376;DHT22;2202;50.866;12.750;2023-07-29T12:22:00;20.30;88.40
4376;DHT22;2202;50.866;12.750;2023-07-29T12:24:29;20.10;85.80
4376;DHT22;2202;50.866;12.750;2023-07-29T12:26:56;20.10;87.80
4376;DHT22;2202;50.866;12.750;2023-07-29T12:29:24;20.40;87.40
4376;DHT22;2202;50.866;12.750;2023-07-29T12:31:57;20.60;85.20
4376;DHT22;2202;50.866;12.750;2023-07-29T12:34:26;21.00;82.20
4376;DHT22;2202;50.866;12.750;2023-07-29T12:36:54;21.50;79.60
4376;DHT22;2202;50.866;12.750;2023-07-29T12:39:22;21.60;77.60
4376;DHT22;2202;50.866;12.750;2023-07-29T12:41:50;21.90;78.00
4376;DHT22;2202;50.866;12.750;2023-07-29T12:44:18;21.90;74.20
4376;DHT22;2202;50.866;12.750;2023-07-29T12:46:46;21.90;76.20
4376;DHT22;2202;50.866;12.750;2023-07-29T12:49:13;22.10;77.60
4376;DHT22;2202;50.866;12.750;2023-07-29T12:51:40;22.10;74.00
4376;DHT22;2202;50.866;12.750;2023-07-29T12:54:07;22.20;74.40
4376;DHT22;2202;50.866;12.750;2023-07-29T12:56:34;22.30;71.60
4376;DHT22;2202;50.866;12.750;2023-07-29T12:59:01;22.40;73.80
4376;DHT22;2202;50.866;12.750;2023-07-29T13:01:29;22.50;70.40
4376;DHT22;2202;50.866;12.750;2023-07-29T13:03:57;22.60;71.60
4376;DHT22;2202;50.866;12.750;2023-07-29T13:06:24;22.70;70.00
4376;DHT22;2202;50.866;12.750;2023-07-29T13:08:50;22.90;68.80
4376;DHT22;2202;50.866;12.750;2023-07-29T13:11:17;22.80;69.40
4376;DHT22;2202;50.866;12.750;2023-07-29T13:13:44;22.90;69.40
4376;DHT22;2202;50.866;12.750;2023-07-29T13:16:12;23.00;68.00
4376;DHT22;2202;50.866;12.750;2023-07-29T13:18:38;23.10;69.00
4376;DHT22;2202;50.866;12.750;2023-07-29T13:21:07;23.20;68.60
4376;DHT22;2202;50.866;12.750;2023-07-29T13:23:33;23.50;65.20
4376;DHT22;2202;50.866;12.750;2023-07-29T13:26:00;23.00;67.20
4376;DHT22;2202;50.866;12.750;2023-07-29T13:28:27;23.20;66.40
4376;DHT22;2202;50.866;12.750;2023-07-29T13:30:54;23.40;65.80
4376;DHT22;2202;50.866;12.750;2023-07-29T13:33:21;23.60;64.00
4376;DHT22;2202;50.866;12.750;2023-07-29T13:35:48;23.80;62.80
4376;DHT22;2202;50.866;12.750;2023-07-29T13:38:16;23.60;62.20
4376;DHT22;2202;50.866;12.750;2023-07-29T13:40:43;23.40;65.00
4376;DHT22;2202;50.866;12.750;2023-07-29T13:43:11;23.30;65.40
4376;DHT22;2202;50.866;12.750;2023-07-29T13:45:37;23.30;67.40
4376;DHT22;2202;50.866;12.750;2023-07-29T13:48:04;23.60;67.20
4376;DHT22;2202;50.866;12.750;2023-07-29T13:50:31;24.00;64.60
4376;DHT22;2202;50.866;12.750;2023-07-29T13:52:58;24.20;62.40
4376;DHT22;2202;50.866;12.750;2023-07-29T13:55:26;24.10;60.60
4376;DHT22;2202;50.866;12.750;2023-07-29T13:57:53;24.10;59.20
4376;DHT22;2202;50.866;12.750;2023-07-29T14:00:20;24.20;57.60
4376;DHT22;2202;50.866;12.750;2023-07-29T14:02:47;24.00;59.40
4376;DHT22;2202;50.866;12.750;2023-07-29T14:05:14;24.00;60.20
4376;DHT22;2202;50.866;12.750;2023-07-29T14:07:41;23.90;60.20
4376;DHT22;2202;50.866;12.750;2023-07-29T14:10:08;24.00;58.70
4376;DHT22;2202;50.866;12.750;2023-07-29T14:12:36;24.20;56.90
4376;DHT22;2202;50.866;12.750;2023-07-29T14:15:04;24.30;54.40
4376;DHT22;2202;50.866;12.750;2023-07-29T14:17:31;24.40;56.20
4376;DHT22;2202;50.866;12.750;2023-07-29T14:19:58;24.40;56.60
4376;DHT22;2202;50.866;12.750;2023-07-29T14:22:25;24.40;54.60
4376;DHT22;2202;50.866;12.750;2023-07-29T14:24:52;24.40;56.60
4376;DHT22;2202;50.866;12.750;2023-07-29T14:27:19;24.40;55.50
4376;DHT22;2202;50.866;12.750;2023-07-29T14:29:47;24.40;54.80
4376;DHT22;2202;50.866;12.750;2023-07-29T14:32:14;24.50;54.40
4376;DHT22;2202;50.866;12.750;2023-07-29T14:34:41;24.60;55.50
4376;DHT22;2202;50.866;12.750;2023-07-29T14:37:07;24.70;55.50
4376;DHT22;2202;50.866;12.750;2023-07-29T14:39:34;24.80;55.00
4376;DHT22;2202;50.866;12.750;2023-07-29T14:42:01;25.00;52.80
4376;DHT22;2202;50.866;12.750;2023-07-29T14:44:28;24.90;55.30
4376;DHT22;2202;50.866;12.750;2023-07-29T14:46:56;25.00;54.40
4376;DHT22;2202;50.866;12.750;2023-07-29T14:49:23;24.90;54.60
4376;DHT22;2202;50.866;12.750;2023-07-29T14:51:49;24.90;54.40
4376;DHT22;2202;50.866;12.750;2023-07-29T14:54:16;25.00;55.30
4376;DHT22;2202;50.866;12.750;2023-07-29T14:56:43;24.90;53.40
4376;DHT22;2202;50.866;12.750;2023-07-29T14:59:10;24.80;54.60
4376;DHT22;2202;50.866;12.750;2023-07-29T15:01:37;24.60;56.00
4376;DHT22;2202;50.866;12.750;2023-07-29T15:04:05;24.70;56.00
4376;DHT22;2202;50.866;12.750;2023-07-29T15:06:32;24.40;56.00
4376;DHT22;2202;50.866;12.750;2023-07-29T15:08:58;24.20;56.90
4376;DHT22;2202;50.866;12.750;2023-07-29T15:11:25;24.00;57.60
4376;DHT22;2202;50.866;12.750;2023-07-29T15:13:52;23.90;57.60
4376;DHT22;2202;50.866;12.750;2023-07-29T15:16:19;23.90;58.00
4376;DHT22;2202;50.866;12.750;2023-07-29T15:18:46;23.80;58.50
4376;DHT22;2202;50.866;12.750;2023-07-29T15:21:14;23.70;57.40
4376;DHT22;2202;50.866;12.750;2023-07-29T15:23:41;23.60;58.50
4376;DHT22;2202;50.866;12.750;2023-07-29T15:26:08;23.60;58.50
4376;DHT22;2202;50.866;12.750;2023-07-29T15:28:35;23.60;58.20
4376;DHT22;2202;50.866;12.750;2023-07-29T15:31:02;23.60;58.00
4376;DHT22;2202;50.866;12.750;2023-07-29T15:33:29;23.60;58.50
4376;DHT22;2202;50.866;12.750;2023-07-29T15:35:56;23.60;58.50
4376;DHT22;2202;50.866;12.750;2023-07-29T15:38:24;23.50;57.40
4376;DHT22;2202;50.866;12.750;2023-07-29T15:40:51;23.40;58.00
4376;DHT22;2202;50.866;12.750;2023-07-29T15:43:18;23.30;58.00
4376;DHT22;2202;50.866;12.750;2023-07-29T15:45:44;23.30;58.50
4376;DHT22;2202;50.866;12.750;2023-07-29T15:48:11;23.30;58.90